KAKR

Akron Fulton International Airport

Akron, Ohio, USA
METAR KAKR 170754Z AUTO 00000KT 4SM HZ CLR M04/M07 A3014 RMK AO2 SLP216 T10441072
Observed Flight Rules
Dec-17 @ 07:54 UTC (22 minutes ago) Marginal Visual Flight Rules
Wind Visibility Clouds Conditions
Calm 4 miles
  • Clear skies
  • Haze
Temperatures Readings
Current -4°C / 25°F
Dewpoint -7°C / 19°F
Humidity 80%
Altimeter 30.14" Hg
Pressure 1021.6 hPa
Elevation 363
METAR KAKR 170754Z AUTO 00000KT 4SM HZ CLR M04/M07 A3014 RMK AO2 SLP216 T10441072
Observed Flight Rules
Dec-17 @ 07:54 UTC
(22 minutes ago)
MVFR
Wind Visibility
Calm 4 miles
Clouds
  • Clear skies
Conditions
  • Haze
Temperature Dewpoint
-4°C / 25°F -7°C / 19°F
Humidity Altimeter Pressure
80% 30.14" Hg 1021.6 hPa